Time;durP1;ratioP1;P1;durP2;ratioP2;P2;SDS_P1;SDS_P2;PMS_P1;PMS_P2;Temp;Humidity;BMP_temperature;BMP_pressure;BME280_temperature;BME280_humidity;BME280_pressure;Samples;Min_cycle;Max_cycle;Signal;HPM_P1;HPM_P2
2023/01/27 00:00:05;;;;;;;18.83;2.95;;;;;;;2.45;100.00;102021.75;5059102;28;20033;-73
2023/01/27 00:02:42;;;;;;;10.48;2.70;;;;;;;2.45;100.00;102027.72;5062285;28;20135;-73
2023/01/27 00:05:09;;;;;;;16.05;3.95;;;;;;;2.40;100.00;102023.72;5062826;28;20041;-73
2023/01/27 00:07:35;;;;;;;11.35;2.53;;;;;;;2.38;100.00;102015.28;5066099;28;20124;-73
2023/01/27 00:10:01;;;;;;;14.20;3.20;;;;;;;2.52;100.00;102013.72;5065838;28;20147;-74
2023/01/27 00:15:13;;;;;;;11.15;4.53;;;;;;;2.55;100.00;102017.06;5057474;28;20036;-73
2023/01/27 00:17:39;;;;;;;16.40;2.88;;;;;;;2.61;100.00;102015.00;5057916;28;20048;-73
2023/01/27 00:20:06;;;;;;;12.25;3.22;;;;;;;2.55;100.00;102019.59;5056670;28;20036;-73
2023/01/27 00:25:16;;;;;;;12.57;3.10;;;;;;;2.50;100.00;102019.81;5061089;28;20512;-73
2023/01/27 00:27:41;;;;;;;15.00;2.90;;;;;;;2.51;100.00;102031.72;5057757;28;20139;-74
2023/01/27 00:30:08;;;;;;;10.50;2.60;;;;;;;2.45;100.00;102017.50;5045390;28;20479;-73
2023/01/27 00:35:17;;;;;;;18.70;3.15;;;;;;;2.49;100.00;102019.00;5063881;28;20056;-73
2023/01/27 00:37:44;;;;;;;11.73;2.38;;;;;;;2.52;100.00;102023.97;5064785;28;20431;-74
2023/01/27 00:40:11;;;;;;;9.90;2.40;;;;;;;2.49;100.00;102023.28;5047102;28;20415;-73
2023/01/27 00:42:36;;;;;;;12.15;2.45;;;;;;;2.47;100.00;102023.38;5044107;28;20116;-73
2023/01/27 00:47:53;;;;;;;7.05;2.08;;;;;;;2.55;100.00;102024.72;5061041;28;20488;-73
2023/01/27 00:50:20;;;;;;;13.73;2.30;;;;;;;2.52;100.00;102026.53;5062132;28;20032;-73
2023/01/27 00:52:46;;;;;;;12.88;2.10;;;;;;;2.42;100.00;102025.31;5055249;28;20098;-73
2023/01/27 00:55:14;;;;;;;14.55;2.70;;;;;;;2.38;100.00;102028.91;5039189;28;20037;-73
2023/01/27 00:57:40;;;;;;;9.13;2.00;;;;;;;2.36;100.00;102027.34;5056783;28;20131;-74
2023/01/27 01:00:08;;;;;;;15.18;2.80;;;;;;;2.36;100.00;102019.66;5042051;28;20033;-73
2023/01/27 01:02:34;;;;;;;15.30;2.85;;;;;;;2.38;100.00;102022.97;5071988;28;20037;-74
2023/01/27 01:05:00;;;;;;;15.55;3.63;;;;;;;2.40;100.00;102024.56;5061686;28;20608;-73
2023/01/27 01:07:27;;;;;;;12.57;3.45;;;;;;;2.39;100.00;102022.88;5060370;28;20028;-73
2023/01/27 01:09:53;;;;;;;8.43;3.20;;;;;;;2.40;100.00;102023.72;5046324;28;20036;-73
2023/01/27 01:12:20;;;;;;;15.50;4.82;;;;;;;2.38;100.00;102041.72;5061390;28;20079;-74
2023/01/27 01:14:48;;;;;;;10.25;2.80;;;;;;;2.40;100.00;102034.78;5062671;28;20028;-73
2023/01/27 01:17:14;;;;;;;13.75;3.95;;;;;;;2.40;100.00;102039.91;5060040;28;20458;-73
2023/01/27 01:19:39;;;;;;;10.30;2.95;;;;;;;2.38;100.00;102046.84;5043788;28;20060;-73
2023/01/27 01:22:05;;;;;;;15.95;3.10;;;;;;;2.40;100.00;102044.22;5063024;28;20028;-73
2023/01/27 01:24:30;;;;;;;17.85;4.00;;;;;;;2.38;100.00;102053.69;5045209;28;20123;-74
2023/01/27 01:26:56;;;;;;;10.38;3.42;;;;;;;2.40;100.00;102055.28;5045935;28;20035;-74
2023/01/27 01:29:22;;;;;;;14.02;2.92;;;;;;;2.48;100.00;102053.16;5044427;28;20025;-73
2023/01/27 01:31:50;;;;;;;14.35;3.20;;;;;;;2.42;100.00;102056.03;5044079;28;20039;-73
2023/01/27 01:34:16;;;;;;;11.55;3.67;;;;;;;2.47;100.00;102051.53;5062056;28;20033;-73
2023/01/27 01:36:42;;;;;;;12.77;3.85;;;;;;;2.47;100.00;102059.22;5051488;28;20039;-73
2023/01/27 01:39:08;;;;;;;16.70;3.60;;;;;;;2.47;100.00;102056.66;5065602;28;20036;-73
2023/01/27 01:41:33;;;;;;;12.02;3.35;;;;;;;2.44;100.00;102066.22;5065057;28;20033;-73
2023/01/27 01:44:18;;;;;;;14.63;4.63;;;;;;;2.47;100.00;102069.44;5046817;28;20082;-73
2023/01/27 01:46:43;;;;;;;22.75;3.92;;;;;;;2.55;100.00;102073.38;5062846;28;20479;-73
2023/01/27 01:49:09;;;;;;;14.65;3.83;;;;;;;2.54;100.00;102067.41;5069043;28;20028;-74
2023/01/27 01:51:46;;;;;;;8.65;3.45;;;;;;;2.54;100.00;102064.84;5067293;28;20033;-73
2023/01/27 01:54:43;;;;;;;15.25;3.50;;;;;;;2.47;100.00;102069.44;5048068;28;20033;-74
2023/01/27 01:57:21;;;;;;;10.95;3.10;;;;;;;2.57;100.00;102071.59;5059896;28;20136;-73
2023/01/27 01:59:55;;;;;;;16.73;4.70;;;;;;;2.60;100.00;102066.28;5068975;28;20054;-73
2023/01/27 02:02:23;;;;;;;18.40;4.10;;;;;;;2.64;100.00;102068.66;5056030;28;20120;-73
2023/01/27 02:05:05;;;;;;;19.33;3.95;;;;;;;2.59;100.00;102059.53;5065389;28;20024;-73
2023/01/27 02:07:38;;;;;;;11.13;4.27;;;;;;;2.61;100.00;102066.22;5048953;28;20033;-73
2023/01/27 02:10:04;;;;;;;32.95;5.88;;;;;;;2.56;100.00;102064.78;5061395;28;20469;-73
2023/01/27 02:12:33;;;;;;;14.75;4.03;;;;;;;2.61;100.00;102067.97;5062989;28;20032;-73
2023/01/27 02:14:59;;;;;;;17.70;4.00;;;;;;;2.60;100.00;102072.28;5065232;28;20032;-74
2023/01/27 02:17:24;;;;;;;12.77;4.28;;;;;;;2.65;100.00;102075.41;5065766;28;20032;-74
2023/01/27 02:20:11;;;;;;;18.85;5.90;;;;;;;2.63;100.00;102072.09;5051539;28;20383;-73
2023/01/27 02:23:14;;;;;;;21.73;5.47;;;;;;;2.66;100.00;102068.59;5061515;28;20037;-73
2023/01/27 02:25:46;;;;;;;24.08;7.85;;;;;;;2.62;100.00;102064.47;5065823;28;20067;-73
2023/01/27 02:28:12;;;;;;;18.88;6.43;;;;;;;2.68;100.00;102067.59;5047200;28;20060;-73
2023/01/27 02:30:37;;;;;;;16.05;5.65;;;;;;;2.61;100.00;102068.78;5067983;28;20020;-73
2023/01/27 02:33:10;;;;;;;16.73;6.65;;;;;;;2.64;100.00;102067.84;5050064;28;20040;-73
2023/01/27 02:35:50;;;;;;;19.40;6.50;;;;;;;2.58;100.00;102062.97;5046360;28;20427;-73
2023/01/27 02:38:17;;;;;;;22.58;7.75;;;;;;;2.71;100.00;102070.03;5065293;28;20045;-73
2023/01/27 02:40:45;;;;;;;19.42;6.75;;;;;;;2.62;100.00;102069.59;5063999;28;20049;-73
2023/01/27 02:43:10;;;;;;;23.83;7.10;;;;;;;2.60;100.00;102071.41;5045612;28;20051;-73
2023/01/27 02:45:36;;;;;;;16.20;6.28;;;;;;;2.59;100.00;102078.28;5066549;28;20036;-73
2023/01/27 02:48:02;;;;;;;27.02;9.55;;;;;;;2.59;100.00;102077.47;5048611;28;20056;-73
2023/01/27 02:50:27;;;;;;;22.77;7.70;;;;;;;2.64;100.00;102084.03;5048092;28;20471;-73
2023/01/27 02:52:53;;;;;;;26.00;9.07;;;;;;;2.65;100.00;102075.41;5064727;28;20037;-73
2023/01/27 02:55:20;;;;;;;28.75;9.52;;;;;;;2.65;100.00;102077.97;5067722;28;20066;-74
2023/01/27 02:57:47;;;;;;;28.88;11.02;;;;;;;2.57;100.00;102086.94;5050106;28;20035;-74
2023/01/27 03:00:31;;;;;;;27.98;9.50;;;;;;;2.58;100.00;102083.47;5069269;28;20032;-73
2023/01/27 03:02:57;;;;;;;27.52;10.38;;;;;;;2.57;100.00;102081.81;5067447;28;20614;-73
2023/01/27 03:05:23;;;;;;;27.88;11.57;;;;;;;2.53;100.00;102086.25;5048040;28;20025;-73
2023/01/27 03:07:49;;;;;;;32.05;11.95;;;;;;;2.56;100.00;102090.41;5050393;28;20054;-73
2023/01/27 03:10:15;;;;;;;29.33;12.15;;;;;;;2.57;100.00;102087.78;5069279;28;20024;-73
2023/01/27 03:12:40;;;;;;;31.63;13.25;;;;;;;2.61;100.00;102096.13;5064692;28;20463;-73
2023/01/27 03:20:35;;;;;;;35.58;16.45;;;;;;;2.55;100.00;102101.56;5072522;28;20191;-73
2023/01/27 03:23:01;;;;;;;38.22;17.15;;;;;;;2.61;100.00;102093.56;5054479;28;20486;-73
2023/01/27 03:25:28;;;;;;;37.42;17.48;;;;;;;2.56;100.00;102104.03;5060362;28;20025;-72
2023/01/27 03:27:56;;;;;;;39.10;16.23;;;;;;;2.55;100.00;102107.50;5049112;28;20130;-72
2023/01/27 03:30:29;;;;;;;39.28;14.50;;;;;;;2.46;100.00;102110.50;5063973;28;20040;-73
2023/01/27 03:33:09;;;;;;;40.50;14.38;;;;;;;2.40;100.00;102109.03;5061696;28;20107;-73
2023/01/27 03:46:48;;;;;;;44.00;16.70;;;;;;;2.22;100.00;102136.28;5073613;28;20035;-72
2023/01/27 03:49:14;;;;;;;41.55;17.52;;;;;;;2.14;100.00;102130.69;5072696;28;20020;-72
2023/01/27 03:51:39;;;;;;;39.97;14.82;;;;;;;2.13;100.00;102137.56;5069514;28;20559;-72
2023/01/27 03:54:05;;;;;;;30.48;13.23;;;;;;;2.17;100.00;102135.69;5068297;28;20038;-73
2023/01/27 03:56:31;;;;;;;35.05;13.70;;;;;;;2.19;100.00;102128.78;5045876;28;20054;-73
2023/01/27 03:58:56;;;;;;;30.52;13.25;;;;;;;2.12;100.00;102133.31;5084171;28;20481;-73
2023/01/27 04:01:23;;;;;;;25.48;11.68;;;;;;;2.06;100.00;102128.50;5080275;28;20930;-73
2023/01/27 04:06:57;;;;;;;27.33;11.48;;;;;;;2.10;100.00;102129.19;5062328;28;20028;-73
2023/01/27 04:09:27;;;;;;;28.70;11.80;;;;;;;2.08;100.00;102141.22;5061777;28;20051;-73
2023/01/27 04:11:54;;;;;;;31.58;12.68;;;;;;;2.14;100.00;102136.63;5063882;28;20058;-73
2023/01/27 04:14:36;;;;;;;27.85;12.35;;;;;;;2.07;100.00;102140.41;5063234;28;20074;-73
2023/01/27 04:17:11;;;;;;;28.30;11.98;;;;;;;2.11;100.00;102135.94;5068766;28;20119;-73
2023/01/27 04:19:40;;;;;;;28.30;12.00;;;;;;;2.10;100.00;102134.31;5044814;28;24056;-73
2023/01/27 04:22:07;;;;;;;23.40;11.07;;;;;;;2.17;100.00;102138.25;5062242;28;20528;-72
2023/01/27 04:24:32;;;;;;;22.13;9.98;;;;;;;2.13;100.00;102141.84;5084547;28;20106;-73
2023/01/27 04:27:04;;;;;;;22.85;9.75;;;;;;;2.11;100.00;102135.94;5050903;28;20039;-73
2023/01/27 04:29:35;;;;;;;20.95;9.45;;;;;;;2.16;100.00;102144.25;5075558;28;20127;-74
2023/01/27 04:32:02;;;;;;;23.65;9.63;;;;;;;2.17;100.00;102143.38;5052485;28;20763;-73
2023/01/27 04:34:28;;;;;;;18.83;9.18;;;;;;;2.08;100.00;102136.09;5050381;28;20024;-73
2023/01/27 04:36:55;;;;;;;24.00;9.35;;;;;;;2.12;100.00;102142.75;5081885;28;20055;-73
2023/01/27 04:39:21;;;;;;;16.95;8.60;;;;;;;2.09;100.00;102140.31;5046311;28;20043;-73
2023/01/27 04:41:48;;;;;;;22.30;9.63;;;;;;;2.12;100.00;102146.13;5053333;28;20023;-72
2023/01/27 04:44:14;;;;;;;26.27;11.93;;;;;;;2.08;100.00;102152.28;5077298;28;20475;-73
2023/01/27 04:46:40;;;;;;;20.60;9.20;;;;;;;2.03;100.00;102154.19;5060674;28;20035;-73
2023/01/27 04:49:06;;;;;;;18.83;8.85;;;;;;;2.09;100.00;102158.22;5066443;28;20047;-72
2023/01/27 04:51:32;;;;;;;25.30;11.10;;;;;;;2.14;100.00;102156.28;5052018;28;20036;-73
2023/01/27 04:53:59;;;;;;;31.55;11.50;;;;;;;2.08;100.00;102151.47;5066616;28;20051;-73
2023/01/27 04:56:28;;;;;;;27.27;12.32;;;;;;;2.08;100.00;102161.69;5055100;28;20085;-73
2023/01/27 04:58:57;;;;;;;28.35;12.95;;;;;;;2.12;100.00;102163.22;5067636;28;20047;-74
2023/01/27 05:01:23;;;;;;;30.98;12.25;;;;;;;2.03;100.00;102148.25;5068126;28;20044;-73
2023/01/27 05:03:49;;;;;;;25.30;11.35;;;;;;;2.11;100.00;102159.84;5080866;28;20036;-73
2023/01/27 05:06:14;;;;;;;32.10;11.80;;;;;;;2.02;100.00;102154.28;5068915;28;20027;-73
2023/01/27 05:08:40;;;;;;;29.33;12.02;;;;;;;1.94;100.00;102147.78;5065739;28;20036;-73
2023/01/27 05:11:06;;;;;;;30.33;11.73;;;;;;;1.90;100.00;102155.63;5072941;28;20041;-73
2023/01/27 05:13:31;;;;;;;24.38;11.18;;;;;;;1.96;100.00;102155.38;5058721;28;20036;-73
2023/01/27 05:16:07;;;;;;;25.30;11.73;;;;;;;1.89;100.00;102157.38;5064709;28;20441;-73
2023/01/27 05:18:33;;;;;;;31.10;12.77;;;;;;;1.83;100.00;102159.34;5068344;28;20038;-74
2023/01/27 05:21:00;;;;;;;28.40;12.40;;;;;;;1.85;100.00;102162.69;5068514;28;20118;-73
2023/01/27 05:23:34;;;;;;;31.55;11.80;;;;;;;1.98;100.00;102168.94;5051430;28;20036;-73
2023/01/27 05:26:04;;;;;;;29.85;12.57;;;;;;;1.82;100.00;102166.19;5069190;28;20202;-73
2023/01/27 05:28:30;;;;;;;30.38;13.02;;;;;;;1.81;100.00;102167.13;5052022;28;20518;-73
2023/01/27 05:31:08;;;;;;;33.70;12.45;;;;;;;1.89;100.00;102166.78;5068251;28;20028;-73
2023/01/27 05:33:34;;;;;;;28.77;11.82;;;;;;;1.85;100.00;102168.63;5083046;28;20036;-73
2023/01/27 05:36:02;;;;;;;30.15;11.68;;;;;;;1.77;100.00;102169.84;5072363;28;20066;-73
2023/01/27 05:38:28;;;;;;;34.42;12.70;;;;;;;1.75;100.00;102170.75;5067355;28;20118;-73
2023/01/27 05:40:56;;;;;;;29.50;11.68;;;;;;;1.79;100.00;102173.16;5055698;28;20020;-73
2023/01/27 05:43:22;;;;;;;29.25;12.70;;;;;;;1.75;100.00;102175.03;5068983;28;20036;-73
2023/01/27 05:45:47;;;;;;;26.65;11.55;;;;;;;1.73;100.00;102181.94;5082824;28;20372;-73
2023/01/27 05:48:13;;;;;;;29.55;12.38;;;;;;;1.80;100.00;102183.34;5062175;28;20044;-73
2023/01/27 05:50:38;;;;;;;32.35;12.05;;;;;;;1.74;100.00;102183.63;5064204;28;20926;-73
2023/01/27 05:53:04;;;;;;;28.92;12.55;;;;;;;1.71;100.00;102187.13;5048887;28;20039;-73
2023/01/27 05:55:29;;;;;;;29.92;12.85;;;;;;;1.81;100.00;102176.50;5070862;28;20031;-73
2023/01/27 05:57:55;;;;;;;31.45;12.43;;;;;;;1.77;100.00;102180.91;5066506;28;20048;-73
2023/01/27 06:00:21;;;;;;;31.17;11.43;;;;;;;1.73;100.00;102193.03;5083183;28;20066;-73
2023/01/27 06:02:46;;;;;;;41.60;12.60;;;;;;;1.75;100.00;102186.09;5071240;28;20036;-74
2023/01/27 06:05:12;;;;;;;29.13;10.90;;;;;;;1.77;100.00;102183.47;5080955;28;20028;-73
2023/01/27 06:07:37;;;;;;;27.70;12.18;;;;;;;1.79;100.00;102178.28;5079391;28;20153;-73
2023/01/27 06:10:04;;;;;;;28.50;11.73;;;;;;;1.77;100.00;102188.56;5066166;28;20032;-73
2023/01/27 06:12:30;;;;;;;31.95;13.05;;;;;;;1.75;100.00;102188.66;5069636;28;20024;-73
2023/01/27 06:14:58;;;;;;;26.08;11.98;;;;;;;1.85;100.00;102194.22;5074376;28;20024;-73
2023/01/27 06:17:23;;;;;;;31.08;12.60;;;;;;;1.83;100.00;102198.56;5068099;28;20036;-73
2023/01/27 06:19:49;;;;;;;31.40;12.85;;;;;;;1.78;100.00;102192.00;5079298;28;20035;-74
2023/01/27 06:22:14;;;;;;;27.27;11.95;;;;;;;1.83;100.00;102190.91;5066582;28;20067;-73
2023/01/27 06:24:40;;;;;;;26.83;12.02;;;;;;;1.89;100.00;102188.06;5065261;28;20036;-73
2023/01/27 06:27:05;;;;;;;33.28;12.52;;;;;;;1.90;100.00;102196.56;5068429;28;20047;-73
2023/01/27 06:29:31;;;;;;;28.98;12.20;;;;;;;1.86;100.00;102192.47;5069253;28;20050;-73
2023/01/27 06:31:56;;;;;;;32.45;13.35;;;;;;;1.83;100.00;102192.59;5057589;28;20072;-73
2023/01/27 06:34:22;;;;;;;30.17;12.65;;;;;;;1.83;100.00;102200.28;5065745;28;20039;-73
2023/01/27 06:36:47;;;;;;;30.33;13.63;;;;;;;1.89;100.00;102200.03;5066161;28;20241;-73
2023/01/27 06:39:13;;;;;;;34.50;12.73;;;;;;;1.88;100.00;102199.19;5065991;28;20471;-74
2023/01/27 06:41:38;;;;;;;35.70;14.10;;;;;;;1.89;100.00;102203.41;5066827;28;20031;-74
2023/01/27 06:44:04;;;;;;;33.88;12.60;;;;;;;1.90;100.00;102207.66;5068630;28;20066;-74
2023/01/27 06:46:29;;;;;;;33.65;12.63;;;;;;;1.85;100.00;102208.75;5084345;28;20407;-73
2023/01/27 06:48:55;;;;;;;33.05;14.05;;;;;;;1.87;100.00;102218.00;5064943;28;20035;-73
2023/01/27 06:51:20;;;;;;;29.75;11.80;;;;;;;1.85;100.00;102221.53;5059916;28;20028;-75
2023/01/27 06:53:46;;;;;;;30.27;12.10;;;;;;;1.90;100.00;102230.69;5050320;28;20036;-74
2023/01/27 06:56:11;;;;;;;27.48;12.23;;;;;;;1.87;100.00;102230.81;5081527;28;20036;-73
2023/01/27 06:58:37;;;;;;;29.50;12.05;;;;;;;1.90;100.00;102229.81;5063342;28;20043;-73
2023/01/27 07:01:06;;;;;;;27.17;12.10;;;;;;;1.88;100.00;102224.78;5055852;28;20074;-72
2023/01/27 07:03:31;;;;;;;23.95;11.25;;;;;;;1.87;100.00;102227.41;5068166;28;20679;-74
2023/01/27 07:05:57;;;;;;;26.05;11.63;;;;;;;1.94;100.00;102239.03;5068325;28;20113;-73
2023/01/27 07:08:22;;;;;;;29.05;11.73;;;;;;;1.95;100.00;102233.03;5071722;28;20040;-73
2023/01/27 07:10:48;;;;;;;26.88;11.13;;;;;;;1.95;100.00;102228.72;5051653;28;20023;-73
2023/01/27 07:13:14;;;;;;;21.35;10.30;;;;;;;2.01;100.00;102227.66;5071353;28;20037;-73
2023/01/27 07:15:40;;;;;;;68.53;24.10;;;;;;;2.00;100.00;102222.59;5092396;28;20035;-73
2023/01/27 07:18:06;;;;;;;26.88;11.32;;;;;;;2.04;100.00;102227.53;5071515;28;20042;-73
2023/01/27 07:20:32;;;;;;;25.50;10.38;;;;;;;2.02;100.00;102225.94;5068491;28;20064;-73
2023/01/27 07:23:03;;;;;;;24.50;11.48;;;;;;;2.06;100.00;102227.47;5082383;28;20146;-73
2023/01/27 07:25:31;;;;;;;21.70;11.25;;;;;;;2.10;100.00;102229.00;5089387;28;20856;-73
2023/01/27 07:27:57;;;;;;;26.02;10.90;;;;;;;2.08;100.00;102233.34;5066099;28;20043;-73
2023/01/27 07:30:24;;;;;;;21.90;10.68;;;;;;;2.07;100.00;102229.97;5070612;28;20035;-73
2023/01/27 07:32:49;;;;;;;23.60;10.60;;;;;;;2.05;100.00;102228.34;5086018;28;20494;-73
2023/01/27 07:35:16;;;;;;;21.95;9.95;;;;;;;2.04;100.00;102239.50;5087543;28;20079;-73
2023/01/27 07:37:42;;;;;;;24.25;11.38;;;;;;;2.00;100.00;102238.78;5069548;28;20043;-73
2023/01/27 07:40:08;;;;;;;23.70;10.38;;;;;;;2.06;100.00;102240.25;5071134;28;20114;-73
2023/01/27 07:42:34;;;;;;;24.08;11.35;;;;;;;2.04;100.00;102234.38;5070086;28;20043;-73
2023/01/27 07:45:00;;;;;;;23.90;11.25;;;;;;;2.12;100.00;102243.38;5069362;28;20397;-74
2023/01/27 07:47:25;;;;;;;26.75;10.80;;;;;;;2.12;100.00;102238.25;5054351;28;20028;-73
2023/01/27 07:49:51;;;;;;;21.02;10.55;;;;;;;2.13;100.00;102241.66;5069478;28;20482;-73
2023/01/27 07:52:16;;;;;;;25.95;10.07;;;;;;;2.18;100.00;102244.00;5066647;28;20032;-73
2023/01/27 07:54:42;;;;;;;22.83;11.23;;;;;;;2.20;100.00;102237.09;5054343;28;20023;-73
2023/01/27 07:57:07;;;;;;;21.73;10.65;;;;;;;2.26;100.00;102235.13;5071788;28;20038;-73
2023/01/27 07:59:33;;;;;;;23.08;10.85;;;;;;;2.20;100.00;102244.78;5055384;28;20480;-73
2023/01/27 08:01:58;;;;;;;27.98;10.98;;;;;;;2.14;100.00;102249.25;5088593;28;20031;-73
2023/01/27 08:04:23;;;;;;;27.48;11.52;;;;;;;2.24;100.00;102252.28;5053495;28;20036;-73
2023/01/27 08:06:49;;;;;;;22.58;10.60;;;;;;;2.34;100.00;102253.53;5067978;28;20020;-73
2023/01/27 08:09:14;;;;;;;25.17;11.68;;;;;;;2.33;100.00;102259.53;5067476;28;20024;-73
2023/01/27 08:11:40;;;;;;;21.55;10.50;;;;;;;2.35;100.00;102251.78;5067204;28;20089;-73
2023/01/27 08:14:05;;;;;;;24.17;11.32;;;;;;;2.31;100.00;102250.25;5072258;28;20035;-73
2023/01/27 08:16:31;;;;;;;23.50;11.50;;;;;;;2.37;100.00;102262.78;5087011;28;20028;-73
2023/01/27 08:18:57;;;;;;;22.42;11.07;;;;;;;2.31;100.00;102265.63;5065164;28;20047;-74
2023/01/27 08:21:24;;;;;;;21.60;10.48;;;;;;;2.30;100.00;102263.97;5068997;28;20032;-74
2023/01/27 08:23:49;;;;;;;23.05;11.65;;;;;;;2.33;100.00;102262.09;5049597;28;20549;-73
2023/01/27 08:26:15;;;;;;;21.50;11.10;;;;;;;2.28;100.00;102252.94;5082265;28;20024;-73
2023/01/27 08:28:40;;;;;;;23.05;10.85;;;;;;;2.31;100.00;102257.94;5060932;28;20133;-73
2023/01/27 08:31:09;;;;;;;23.88;12.10;;;;;;;2.37;100.00;102252.53;5051708;28;20028;-73
2023/01/27 08:33:35;;;;;;;24.90;12.00;;;;;;;2.40;100.00;102254.16;5066798;28;20035;-74
2023/01/27 08:36:07;;;;;;;23.83;12.23;;;;;;;2.36;100.00;102250.91;5053445;28;20036;-73
2023/01/27 08:38:36;;;;;;;27.85;12.85;;;;;;;2.44;100.00;102256.50;5044901;28;20473;-73
2023/01/27 08:41:13;;;;;;;30.30;12.60;;;;;;;2.39;100.00;102258.44;5049112;28;20482;-73
2023/01/27 08:43:40;;;;;;;26.52;13.18;;;;;;;2.52;100.00;102259.56;5044632;28;20095;-72
2023/01/27 08:46:06;;;;;;;22.75;12.05;;;;;;;2.43;100.00;102259.97;5069308;28;20111;-73
2023/01/27 08:48:33;;;;;;;25.65;12.32;;;;;;;2.50;100.00;102261.34;5064433;28;20036;-74
2023/01/27 08:51:00;;;;;;;25.80;12.70;;;;;;;2.45;100.00;102263.31;5063565;28;20032;-74
2023/01/27 08:53:26;;;;;;;25.13;12.80;;;;;;;2.44;100.00;102264.19;5070156;28;20082;-73
2023/01/27 08:55:54;;;;;;;25.52;11.73;;;;;;;2.52;100.00;102253.59;5072893;28;20501;-74
2023/01/27 08:58:21;;;;;;;27.48;12.82;;;;;;;2.56;100.00;102254.31;5072223;28;20036;-73
2023/01/27 09:00:47;;;;;;;23.80;12.73;;;;;;;2.52;100.00;102248.47;5057828;28;20110;-73
2023/01/27 09:03:12;;;;;;;24.52;12.68;;;;;;;2.54;100.00;102259.47;5062646;28;20047;-73
2023/01/27 09:05:39;;;;;;;28.80;13.00;;;;;;;2.56;100.00;102264.53;5054224;28;20028;-73
2023/01/27 09:08:05;;;;;;;25.90;12.55;;;;;;;2.55;100.00;102268.84;5070581;28;20039;-73
2023/01/27 09:10:30;;;;;;;26.13;13.35;;;;;;;2.69;100.00;102260.53;5072718;28;20518;-73
2023/01/27 09:12:56;;;;;;;29.27;13.52;;;;;;;2.71;100.00;102272.38;5080857;28;20085;-73
2023/01/27 09:15:21;;;;;;;25.27;13.30;;;;;;;2.80;100.00;102271.13;5058775;28;20115;-74
2023/01/27 09:17:47;;;;;;;23.45;12.50;;;;;;;2.70;100.00;102272.47;5076668;28;20592;-73
2023/01/27 09:20:13;;;;;;;26.80;12.13;;;;;;;2.72;100.00;102278.34;5092842;28;20035;-74
2023/01/27 09:22:40;;;;;;;23.25;12.40;;;;;;;2.78;100.00;102285.75;5050746;28;20493;-73
2023/01/27 09:25:15;;;;;;;23.60;11.55;;;;;;;2.81;100.00;102280.50;5072260;28;20039;-73
2023/01/27 09:27:42;;;;;;;24.73;11.80;;;;;;;2.75;100.00;102291.03;5065263;28;20040;-74
2023/01/27 09:30:10;;;;;;;25.35;12.98;;;;;;;2.75;100.00;102285.03;5066622;28;20028;-73
2023/01/27 09:32:35;;;;;;;23.25;12.32;;;;;;;2.71;100.00;102289.47;5073564;28;20035;-73
2023/01/27 09:35:01;;;;;;;24.02;12.15;;;;;;;2.71;100.00;102285.19;5061400;28;20024;-73
2023/01/27 09:37:27;;;;;;;29.55;13.10;;;;;;;2.78;100.00;102290.03;5053939;28;20044;-76
2023/01/27 09:39:58;;;;;;;21.73;11.82;;;;;;;2.83;100.00;102283.81;5067986;28;20032;-73
2023/01/27 09:42:47;;;;;;;25.98;12.35;;;;;;;2.80;100.00;102295.94;5068953;28;20078;-73
2023/01/27 09:45:43;;;;;;;28.23;12.50;;;;;;;2.80;100.00;102293.38;5056307;28;20027;-73
2023/01/27 09:48:11;;;;;;;21.73;12.68;;;;;;;2.85;100.00;102296.56;5072632;28;20044;-74
2023/01/27 09:50:59;;;;;;;26.23;13.20;;;;;;;2.98;100.00;102296.84;5063835;28;20040;-73
2023/01/27 09:53:54;;;;;;;30.70;13.50;;;;;;;2.95;100.00;102304.66;5059115;28;20032;-73
2023/01/27 09:56:35;;;;;;;31.50;15.25;;;;;;;2.95;100.00;102308.03;5052744;28;20040;-73
2023/01/27 09:59:22;;;;;;;23.08;11.60;;;;;;;2.97;100.00;102307.97;5055455;28;20052;-73
2023/01/27 10:02:13;;;;;;;30.48;16.23;;;;;;;2.92;100.00;102303.91;5080788;28;20032;-74
2023/01/27 10:04:55;;;;;;;29.13;13.98;;;;;;;3.01;100.00;102306.94;5048219;28;20070;-74
2023/01/27 10:07:42;;;;;;;23.48;12.60;;;;;;;3.01;100.00;102309.50;5067909;28;20098;-73
2023/01/27 10:10:38;;;;;;;21.50;12.13;;;;;;;3.00;100.00;102300.97;5089451;28;20040;-73
2023/01/27 10:13:21;;;;;;;23.85;11.27;;;;;;;2.98;100.00;102309.66;5053008;28;20032;-73
2023/01/27 10:16:08;;;;;;;28.85;15.20;;;;;;;3.01;100.00;102301.81;5076251;28;20455;-73
2023/01/27 10:19:02;;;;;;;27.08;13.77;;;;;;;3.16;100.00;102300.28;5071139;28;20040;-73
2023/01/27 10:21:43;;;;;;;21.05;11.05;;;;;;;3.20;100.00;102301.78;5070805;28;20036;-73
2023/01/27 10:24:31;;;;;;;22.50;12.02;;;;;;;3.26;100.00;102306.66;5064789;28;20054;-73
2023/01/27 10:27:20;;;;;;;24.30;10.98;;;;;;;3.27;100.00;102303.16;5081822;28;20048;-73
2023/01/27 10:29:48;;;;;;;19.75;11.38;;;;;;;3.33;100.00;102296.91;5086570;28;20028;-74
2023/01/27 10:32:29;;;;;;;20.55;10.32;;;;;;;3.35;100.00;102301.06;5068538;28;20085;-73
2023/01/27 10:34:54;;;;;;;20.10;11.02;;;;;;;3.38;100.00;102300.94;5089377;28;20094;-73
2023/01/27 10:37:39;;;;;;;17.48;10.02;;;;;;;3.42;100.00;102310.13;5067140;28;20460;-73
2023/01/27 10:40:27;;;;;;;20.27;11.48;;;;;;;3.45;100.00;102301.47;5088879;28;20115;-74
2023/01/27 10:43:12;;;;;;;24.38;12.68;;;;;;;3.53;100.00;102301.94;5073233;28;20044;-74
2023/01/27 10:45:55;;;;;;;22.55;12.50;;;;;;;3.51;100.00;102304.56;5049462;28;20682;-73
2023/01/27 10:48:39;;;;;;;23.90;11.40;;;;;;;3.48;100.00;102291.91;5063810;28;20174;-73
2023/01/27 10:51:20;;;;;;;19.80;11.25;;;;;;;3.53;100.00;102289.13;5064230;28;20036;-74
2023/01/27 10:54:11;;;;;;;18.58;11.07;;;;;;;3.63;100.00;102300.56;5083571;28;20032;-73
2023/01/27 10:56:54;;;;;;;19.85;10.57;;;;;;;3.65;100.00;102293.63;5045872;28;20036;-73
2023/01/27 10:59:41;;;;;;;16.15;9.45;;;;;;;3.64;100.00;102284.28;5067851;28;20127;-73
2023/01/27 11:02:23;;;;;;;21.33;12.30;;;;;;;3.67;100.00;102293.56;5049533;28;20044;-73
2023/01/27 11:05:02;;;;;;;17.90;10.50;;;;;;;3.69;100.00;102286.63;5073694;28;20036;-74
2023/01/27 11:07:30;;;;;;;18.38;10.27;;;;;;;3.57;100.00;102289.81;5073048;28;20396;-73
2023/01/27 11:10:07;;;;;;;18.52;10.18;;;;;;;3.58;100.00;102286.31;5078848;28;20032;-73
2023/01/27 11:12:36;;;;;;;19.10;10.50;;;;;;;3.58;100.00;102282.03;5067256;28;20035;-73
2023/01/27 11:15:22;;;;;;;17.55;10.10;;;;;;;3.65;100.00;102279.97;5051531;28;20028;-73
2023/01/27 11:17:58;;;;;;;19.13;10.48;;;;;;;3.69;100.00;102274.66;5065872;28;20040;-73
2023/01/27 11:20:33;;;;;;;17.60;10.38;;;;;;;3.79;100.00;102271.63;5073339;28;20039;-73
2023/01/27 11:23:09;;;;;;;17.35;10.25;;;;;;;3.78;100.00;102263.06;5073804;28;20111;-73
2023/01/27 11:25:46;;;;;;;17.83;10.23;;;;;;;3.83;100.00;102280.84;5072316;28;20043;-73
2023/01/27 11:28:27;;;;;;;16.73;9.77;;;;;;;3.77;100.00;102276.84;5067410;28;20036;-73
2023/01/27 11:31:20;;;;;;;19.08;11.02;;;;;;;3.85;100.00;102282.41;5063204;28;20039;-73
2023/01/27 11:33:50;;;;;;;;;;;;;;;3.90;100.00;102277.06;5049468;28;20139;-73
2023/01/27 11:36:16;;;;;;;18.30;10.48;;;;;;;3.78;100.00;102285.34;5056458;28;19922;-73
2023/01/27 11:38:42;;;;;;;19.85;10.57;;;;;;;3.76;100.00;102282.03;5084912;28;20036;-73
2023/01/27 11:41:07;;;;;;;17.00;10.52;;;;;;;3.65;100.00;102280.81;5064119;28;20448;-73
2023/01/27 11:43:35;;;;;;;19.48;10.10;;;;;;;3.64;100.00;102273.22;5069746;28;20043;-73
2023/01/27 11:46:04;;;;;;;19.77;11.35;;;;;;;3.66;100.00;102279.09;5064529;28;20497;-73
2023/01/27 11:48:40;;;;;;;17.63;10.45;;;;;;;3.69;100.00;102272.09;5084461;28;20782;-73
2023/01/27 11:51:13;;;;;;;19.33;11.90;;;;;;;3.70;100.00;102278.84;5044022;28;20041;-74
2023/01/27 11:53:40;;;;;;;20.40;12.02;;;;;;;3.70;100.00;102272.91;5069171;28;20040;-74